sensor_id;sensor_type;location;lat;lon;timestamp;P1;durP1;ratioP1;P2;durP2;ratioP2
41077;SDS011;26823;42.662;23.352;2023-04-03T00:01:23;6.43;;;3.70;;
41077;SDS011;26823;42.662;23.352;2023-04-03T00:03:49;6.50;;;3.85;;
41077;SDS011;26823;42.662;23.352;2023-04-03T00:06:15;9.02;;;5.05;;
41077;SDS011;26823;42.662;23.352;2023-04-03T00:08:40;8.63;;;4.28;;
41077;SDS011;26823;42.662;23.352;2023-04-03T00:11:06;10.20;;;4.38;;
41077;SDS011;26823;42.662;23.352;2023-04-03T00:13:32;8.27;;;3.40;;
41077;SDS011;26823;42.662;23.352;2023-04-03T00:15:57;5.30;;;3.03;;
41077;SDS011;26823;42.662;23.352;2023-04-03T00:18:23;5.82;;;3.63;;
41077;SDS011;26823;42.662;23.352;2023-04-03T00:20:48;5.65;;;3.50;;
41077;SDS011;26823;42.662;23.352;2023-04-03T00:23:14;6.18;;;3.58;;
41077;SDS011;26823;42.662;23.352;2023-04-03T00:25:40;8.80;;;3.85;;
41077;SDS011;26823;42.662;23.352;2023-04-03T00:28:05;7.22;;;3.53;;
41077;SDS011;26823;42.662;23.352;2023-04-03T00:30:31;4.70;;;3.83;;
41077;SDS011;26823;42.662;23.352;2023-04-03T00:32:57;6.90;;;4.20;;
41077;SDS011;26823;42.662;23.352;2023-04-03T00:35:22;8.43;;;4.15;;
41077;SDS011;26823;42.662;23.352;2023-04-03T00:37:52;6.80;;;3.80;;
41077;SDS011;26823;42.662;23.352;2023-04-03T00:40:19;5.47;;;4.03;;
41077;SDS011;26823;42.662;23.352;2023-04-03T00:42:46;6.00;;;3.70;;
41077;SDS011;26823;42.662;23.352;2023-04-03T00:48:11;7.05;;;4.50;;
41077;SDS011;26823;42.662;23.352;2023-04-03T00:50:41;5.30;;;3.28;;
41077;SDS011;26823;42.662;23.352;2023-04-03T00:53:08;7.72;;;4.20;;
41077;SDS011;26823;42.662;23.352;2023-04-03T00:55:37;6.95;;;4.95;;
41077;SDS011;26823;42.662;23.352;2023-04-03T00:58:04;6.85;;;3.13;;
41077;SDS011;26823;42.662;23.352;2023-04-03T01:00:31;8.18;;;2.97;;
41077;SDS011;26823;42.662;23.352;2023-04-03T01:02:57;12.38;;;3.67;;
41077;SDS011;26823;42.662;23.352;2023-04-03T01:05:23;4.63;;;2.85;;
41077;SDS011;26823;42.662;23.352;2023-04-03T01:07:49;6.93;;;3.72;;
41077;SDS011;26823;42.662;23.352;2023-04-03T01:10:17;4.90;;;3.40;;
41077;SDS011;26823;42.662;23.352;2023-04-03T01:12:46;7.18;;;3.45;;
41077;SDS011;26823;42.662;23.352;2023-04-03T01:15:17;5.70;;;3.60;;
41077;SDS011;26823;42.662;23.352;2023-04-03T01:28:18;4.85;;;2.88;;
41077;SDS011;26823;42.662;23.352;2023-04-03T01:33:33;5.45;;;2.47;;
41077;SDS011;26823;42.662;23.352;2023-04-03T01:36:00;6.07;;;3.33;;
41077;SDS011;26823;42.662;23.352;2023-04-03T01:38:26;5.95;;;3.35;;
41077;SDS011;26823;42.662;23.352;2023-04-03T01:40:51;4.82;;;3.45;;
41077;SDS011;26823;42.662;23.352;2023-04-03T01:43:16;6.32;;;3.10;;
41077;SDS011;26823;42.662;23.352;2023-04-03T01:45:42;7.10;;;3.65;;
41077;SDS011;26823;42.662;23.352;2023-04-03T01:48:07;6.15;;;4.28;;
41077;SDS011;26823;42.662;23.352;2023-04-03T01:50:33;7.68;;;4.00;;
41077;SDS011;26823;42.662;23.352;2023-04-03T01:52:59;3.88;;;2.97;;
41077;SDS011;26823;42.662;23.352;2023-04-03T01:55:24;6.35;;;3.85;;
41077;SDS011;26823;42.662;23.352;2023-04-03T01:57:50;7.95;;;3.60;;
41077;SDS011;26823;42.662;23.352;2023-04-03T02:00:15;7.50;;;3.50;;
41077;SDS011;26823;42.662;23.352;2023-04-03T02:02:41;6.45;;;3.63;;
41077;SDS011;26823;42.662;23.352;2023-04-03T02:05:07;4.53;;;3.55;;
41077;SDS011;26823;42.662;23.352;2023-04-03T02:07:32;4.75;;;3.53;;
41077;SDS011;26823;42.662;23.352;2023-04-03T02:09:58;7.25;;;3.67;;
41077;SDS011;26823;42.662;23.352;2023-04-03T02:12:23;4.03;;;3.20;;
41077;SDS011;26823;42.662;23.352;2023-04-03T02:14:49;7.75;;;5.28;;
41077;SDS011;26823;42.662;23.352;2023-04-03T02:17:14;10.30;;;5.63;;
41077;SDS011;26823;42.662;23.352;2023-04-03T02:19:40;10.63;;;6.50;;
41077;SDS011;26823;42.662;23.352;2023-04-03T02:22:06;8.50;;;4.45;;
41077;SDS011;26823;42.662;23.352;2023-04-03T02:24:31;4.75;;;3.53;;
41077;SDS011;26823;42.662;23.352;2023-04-03T02:26:57;8.63;;;5.40;;
41077;SDS011;26823;42.662;23.352;2023-04-03T02:29:30;10.43;;;6.15;;
41077;SDS011;26823;42.662;23.352;2023-04-03T02:31:55;10.70;;;5.93;;
41077;SDS011;26823;42.662;23.352;2023-04-03T02:34:21;7.80;;;5.07;;
41077;SDS011;26823;42.662;23.352;2023-04-03T02:36:46;9.35;;;5.25;;
41077;SDS011;26823;42.662;23.352;2023-04-03T02:39:12;9.07;;;5.70;;
41077;SDS011;26823;42.662;23.352;2023-04-03T02:41:38;9.88;;;5.60;;
41077;SDS011;26823;42.662;23.352;2023-04-03T02:44:05;9.85;;;5.88;;
41077;SDS011;26823;42.662;23.352;2023-04-03T02:46:32;7.68;;;5.20;;
41077;SDS011;26823;42.662;23.352;2023-04-03T02:48:57;9.80;;;5.50;;
41077;SDS011;26823;42.662;23.352;2023-04-03T02:51:23;9.30;;;5.30;;
41077;SDS011;26823;42.662;23.352;2023-04-03T02:53:49;11.57;;;5.60;;
41077;SDS011;26823;42.662;23.352;2023-04-03T02:56:15;7.82;;;5.60;;
41077;SDS011;26823;42.662;23.352;2023-04-03T02:58:40;9.30;;;4.88;;
41077;SDS011;26823;42.662;23.352;2023-04-03T03:01:06;9.43;;;6.13;;
41077;SDS011;26823;42.662;23.352;2023-04-03T03:03:31;10.98;;;5.25;;
41077;SDS011;26823;42.662;23.352;2023-04-03T03:06:07;9.70;;;5.65;;
41077;SDS011;26823;42.662;23.352;2023-04-03T03:08:34;10.30;;;5.47;;
41077;SDS011;26823;42.662;23.352;2023-04-03T03:11:00;8.93;;;5.03;;
41077;SDS011;26823;42.662;23.352;2023-04-03T03:13:26;13.30;;;5.80;;
41077;SDS011;26823;42.662;23.352;2023-04-03T03:15:52;9.07;;;5.50;;
41077;SDS011;26823;42.662;23.352;2023-04-03T03:18:18;8.10;;;5.20;;
41077;SDS011;26823;42.662;23.352;2023-04-03T03:20:43;8.63;;;5.45;;
41077;SDS011;26823;42.662;23.352;2023-04-03T03:23:09;10.20;;;5.32;;
41077;SDS011;26823;42.662;23.352;2023-04-03T03:25:38;11.55;;;4.97;;
41077;SDS011;26823;42.662;23.352;2023-04-03T03:28:05;7.25;;;3.90;;
41077;SDS011;26823;42.662;23.352;2023-04-03T03:30:30;7.10;;;4.40;;
41077;SDS011;26823;42.662;23.352;2023-04-03T03:32:56;9.70;;;5.47;;
41077;SDS011;26823;42.662;23.352;2023-04-03T03:35:21;8.05;;;4.35;;
41077;SDS011;26823;42.662;23.352;2023-04-03T03:37:47;9.20;;;4.22;;
41077;SDS011;26823;42.662;23.352;2023-04-03T03:40:12;10.27;;;4.50;;
41077;SDS011;26823;42.662;23.352;2023-04-03T03:42:38;11.38;;;5.22;;
41077;SDS011;26823;42.662;23.352;2023-04-03T03:45:04;6.75;;;3.88;;
41077;SDS011;26823;42.662;23.352;2023-04-03T03:47:30;6.90;;;4.55;;
41077;SDS011;26823;42.662;23.352;2023-04-03T03:49:55;7.55;;;4.13;;
41077;SDS011;26823;42.662;23.352;2023-04-03T03:52:21;17.27;;;5.28;;
41077;SDS011;26823;42.662;23.352;2023-04-03T03:54:46;7.60;;;4.07;;
41077;SDS011;26823;42.662;23.352;2023-04-03T03:57:12;10.75;;;4.22;;
41077;SDS011;26823;42.662;23.352;2023-04-03T03:59:37;7.68;;;4.80;;
41077;SDS011;26823;42.662;23.352;2023-04-03T04:02:02;8.65;;;4.80;;
41077;SDS011;26823;42.662;23.352;2023-04-03T04:04:35;6.93;;;4.53;;
41077;SDS011;26823;42.662;23.352;2023-04-03T04:07:00;10.73;;;5.32;;
41077;SDS011;26823;42.662;23.352;2023-04-03T04:09:26;8.15;;;4.80;;
41077;SDS011;26823;42.662;23.352;2023-04-03T04:11:52;6.22;;;4.68;;
41077;SDS011;26823;42.662;23.352;2023-04-03T04:14:17;6.18;;;4.70;;
41077;SDS011;26823;42.662;23.352;2023-04-03T04:16:45;9.32;;;4.10;;
41077;SDS011;26823;42.662;23.352;2023-04-03T04:19:11;6.93;;;3.92;;
41077;SDS011;26823;42.662;23.352;2023-04-03T04:21:36;9.07;;;4.47;;
41077;SDS011;26823;42.662;23.352;2023-04-03T04:24:02;12.27;;;4.63;;
41077;SDS011;26823;42.662;23.352;2023-04-03T04:26:27;8.20;;;4.13;;
41077;SDS011;26823;42.662;23.352;2023-04-03T04:28:53;6.45;;;5.47;;
41077;SDS011;26823;42.662;23.352;2023-04-03T04:31:18;13.88;;;6.00;;
41077;SDS011;26823;42.662;23.352;2023-04-03T04:33:44;13.27;;;6.45;;
41077;SDS011;26823;42.662;23.352;2023-04-03T04:36:09;13.30;;;5.90;;
41077;SDS011;26823;42.662;23.352;2023-04-03T04:38:35;8.77;;;6.15;;
41077;SDS011;26823;42.662;23.352;2023-04-03T04:41:01;13.73;;;5.80;;
41077;SDS011;26823;42.662;23.352;2023-04-03T04:43:26;14.52;;;5.97;;
41077;SDS011;26823;42.662;23.352;2023-04-03T04:46:05;10.25;;;6.35;;
41077;SDS011;26823;42.662;23.352;2023-04-03T04:48:32;12.07;;;6.65;;
41077;SDS011;26823;42.662;23.352;2023-04-03T04:50:59;13.65;;;7.80;;
41077;SDS011;26823;42.662;23.352;2023-04-03T04:53:24;17.63;;;7.88;;
41077;SDS011;26823;42.662;23.352;2023-04-03T04:55:50;14.75;;;7.85;;
41077;SDS011;26823;42.662;23.352;2023-04-03T04:58:16;10.90;;;6.32;;
41077;SDS011;26823;42.662;23.352;2023-04-03T05:00:42;11.93;;;7.00;;
41077;SDS011;26823;42.662;23.352;2023-04-03T05:03:07;18.67;;;6.95;;
41077;SDS011;26823;42.662;23.352;2023-04-03T05:05:33;15.45;;;6.75;;
41077;SDS011;26823;42.662;23.352;2023-04-03T05:07:59;14.85;;;8.55;;
41077;SDS011;26823;42.662;23.352;2023-04-03T05:10:24;14.40;;;8.45;;
41077;SDS011;26823;42.662;23.352;2023-04-03T05:12:50;19.27;;;10.60;;
41077;SDS011;26823;42.662;23.352;2023-04-03T05:15:15;19.70;;;9.63;;
41077;SDS011;26823;42.662;23.352;2023-04-03T05:17:41;16.88;;;8.65;;
41077;SDS011;26823;42.662;23.352;2023-04-03T05:20:06;13.05;;;8.95;;
41077;SDS011;26823;42.662;23.352;2023-04-03T05:22:32;15.90;;;9.52;;
41077;SDS011;26823;42.662;23.352;2023-04-03T05:24:58;19.65;;;10.23;;
41077;SDS011;26823;42.662;23.352;2023-04-03T05:27:23;24.40;;;8.77;;
41077;SDS011;26823;42.662;23.352;2023-04-03T05:29:49;23.98;;;8.85;;
41077;SDS011;26823;42.662;23.352;2023-04-03T05:32:17;19.95;;;7.15;;
41077;SDS011;26823;42.662;23.352;2023-04-03T05:34:42;16.58;;;6.45;;
41077;SDS011;26823;42.662;23.352;2023-04-03T05:37:08;13.32;;;6.95;;
41077;SDS011;26823;42.662;23.352;2023-04-03T05:39:33;15.35;;;8.32;;
41077;SDS011;26823;42.662;23.352;2023-04-03T05:41:59;12.75;;;7.15;;
41077;SDS011;26823;42.662;23.352;2023-04-03T05:44:25;13.57;;;6.65;;
41077;SDS011;26823;42.662;23.352;2023-04-03T05:46:50;17.60;;;8.38;;
41077;SDS011;26823;42.662;23.352;2023-04-03T05:49:16;18.70;;;10.10;;
41077;SDS011;26823;42.662;23.352;2023-04-03T05:51:42;28.98;;;11.30;;
41077;SDS011;26823;42.662;23.352;2023-04-03T05:54:16;26.15;;;10.95;;
41077;SDS011;26823;42.662;23.352;2023-04-03T05:56:42;24.02;;;12.70;;
41077;SDS011;26823;42.662;23.352;2023-04-03T05:59:08;21.90;;;13.18;;
41077;SDS011;26823;42.662;23.352;2023-04-03T06:01:34;24.73;;;12.32;;
41077;SDS011;26823;42.662;23.352;2023-04-03T06:03:59;24.65;;;10.40;;
41077;SDS011;26823;42.662;23.352;2023-04-03T06:06:25;17.83;;;9.35;;
41077;SDS011;26823;42.662;23.352;2023-04-03T06:08:50;14.65;;;8.35;;
41077;SDS011;26823;42.662;23.352;2023-04-03T06:11:16;19.38;;;9.18;;
41077;SDS011;26823;42.662;23.352;2023-04-03T06:13:42;17.88;;;7.97;;
41077;SDS011;26823;42.662;23.352;2023-04-03T06:16:09;12.05;;;7.47;;
41077;SDS011;26823;42.662;23.352;2023-04-03T06:18:40;17.83;;;7.53;;
41077;SDS011;26823;42.662;23.352;2023-04-03T06:21:06;14.90;;;8.63;;
41077;SDS011;26823;42.662;23.352;2023-04-03T06:23:32;16.23;;;8.32;;
41077;SDS011;26823;42.662;23.352;2023-04-03T06:25:58;20.75;;;9.88;;
41077;SDS011;26823;42.662;23.352;2023-04-03T06:28:23;17.65;;;9.95;;
41077;SDS011;26823;42.662;23.352;2023-04-03T06:30:49;20.60;;;10.25;;
41077;SDS011;26823;42.662;23.352;2023-04-03T06:33:14;21.92;;;11.75;;
41077;SDS011;26823;42.662;23.352;2023-04-03T06:35:40;22.90;;;9.63;;
41077;SDS011;26823;42.662;23.352;2023-04-03T06:38:05;20.02;;;9.52;;
41077;SDS011;26823;42.662;23.352;2023-04-03T06:40:34;24.05;;;11.32;;
41077;SDS011;26823;42.662;23.352;2023-04-03T06:43:00;27.98;;;12.50;;
41077;SDS011;26823;42.662;23.352;2023-04-03T06:45:26;23.67;;;14.02;;
41077;SDS011;26823;42.662;23.352;2023-04-03T06:47:52;21.02;;;13.07;;
41077;SDS011;26823;42.662;23.352;2023-04-03T06:50:18;27.00;;;12.50;;
41077;SDS011;26823;42.662;23.352;2023-04-03T06:52:44;24.13;;;13.73;;
41077;SDS011;26823;42.662;23.352;2023-04-03T06:55:10;22.23;;;12.65;;
41077;SDS011;26823;42.662;23.352;2023-04-03T06:57:36;23.38;;;11.70;;
41077;SDS011;26823;42.662;23.352;2023-04-03T07:00:01;26.63;;;12.55;;
41077;SDS011;26823;42.662;23.352;2023-04-03T07:02:29;26.33;;;11.43;;
41077;SDS011;26823;42.662;23.352;2023-04-03T07:04:55;22.08;;;10.25;;
41077;SDS011;26823;42.662;23.352;2023-04-03T07:07:21;16.50;;;8.80;;
41077;SDS011;26823;42.662;23.352;2023-04-03T07:09:46;16.83;;;9.05;;
41077;SDS011;26823;42.662;23.352;2023-04-03T07:12:13;15.15;;;8.85;;
41077;SDS011;26823;42.662;23.352;2023-04-03T07:14:38;17.65;;;9.15;;
41077;SDS011;26823;42.662;23.352;2023-04-03T07:17:04;21.52;;;10.10;;
41077;SDS011;26823;42.662;23.352;2023-04-03T07:19:29;25.58;;;8.90;;
41077;SDS011;26823;42.662;23.352;2023-04-03T07:21:56;18.67;;;9.45;;
41077;SDS011;26823;42.662;23.352;2023-04-03T07:24:21;14.30;;;8.02;;
41077;SDS011;26823;42.662;23.352;2023-04-03T07:26:51;11.32;;;7.82;;
41077;SDS011;26823;42.662;23.352;2023-04-03T07:29:17;18.08;;;7.82;;
41077;SDS011;26823;42.662;23.352;2023-04-03T07:31:42;11.77;;;7.68;;
41077;SDS011;26823;42.662;23.352;2023-04-03T07:34:08;19.20;;;8.35;;
41077;SDS011;26823;42.662;23.352;2023-04-03T07:36:33;20.02;;;8.05;;
41077;SDS011;26823;42.662;23.352;2023-04-03T07:38:59;15.20;;;8.38;;
41077;SDS011;26823;42.662;23.352;2023-04-03T07:41:24;17.95;;;8.40;;
41077;SDS011;26823;42.662;23.352;2023-04-03T07:43:49;15.60;;;7.68;;
41077;SDS011;26823;42.662;23.352;2023-04-03T07:46:15;18.40;;;9.48;;
41077;SDS011;26823;42.662;23.352;2023-04-03T07:48:42;18.95;;;9.50;;
41077;SDS011;26823;42.662;23.352;2023-04-03T07:51:07;18.67;;;9.75;;
41077;SDS011;26823;42.662;23.352;2023-04-03T07:53:33;16.02;;;10.88;;
41077;SDS011;26823;42.662;23.352;2023-04-03T07:55:58;26.35;;;14.30;;
41077;SDS011;26823;42.662;23.352;2023-04-03T07:58:24;29.63;;;16.55;;
41077;SDS011;26823;42.662;23.352;2023-04-03T08:00:50;23.55;;;15.93;;
41077;SDS011;26823;42.662;23.352;2023-04-03T08:03:16;27.85;;;18.73;;
41077;SDS011;26823;42.662;23.352;2023-04-03T08:05:43;27.27;;;19.10;;
41077;SDS011;26823;42.662;23.352;2023-04-03T08:08:11;36.05;;;19.83;;
41077;SDS011;26823;42.662;23.352;2023-04-03T08:10:38;27.73;;;18.67;;
41077;SDS011;26823;42.662;23.352;2023-04-03T08:13:04;32.20;;;19.48;;
41077;SDS011;26823;42.662;23.352;2023-04-03T08:15:30;31.70;;;17.77;;
41077;SDS011;26823;42.662;23.352;2023-04-03T08:17:56;25.15;;;17.88;;
41077;SDS011;26823;42.662;23.352;2023-04-03T08:20:22;29.13;;;16.77;;
41077;SDS011;26823;42.662;23.352;2023-04-03T08:22:47;25.33;;;16.98;;
41077;SDS011;26823;42.662;23.352;2023-04-03T08:25:13;23.20;;;15.77;;
41077;SDS011;26823;42.662;23.352;2023-04-03T08:27:39;24.63;;;14.27;;
41077;SDS011;26823;42.662;23.352;2023-04-03T08:30:04;27.65;;;14.05;;
41077;SDS011;26823;42.662;23.352;2023-04-03T08:32:32;22.90;;;15.32;;
41077;SDS011;26823;42.662;23.352;2023-04-03T08:34:58;22.98;;;14.23;;
41077;SDS011;26823;42.662;23.352;2023-04-03T08:37:24;31.65;;;15.02;;
41077;SDS011;26823;42.662;23.352;2023-04-03T08:39:49;25.60;;;13.55;;
41077;SDS011;26823;42.662;23.352;2023-04-03T08:42:17;22.05;;;14.15;;
41077;SDS011;26823;42.662;23.352;2023-04-03T08:44:59;21.33;;;13.45;;
41077;SDS011;26823;42.662;23.352;2023-04-03T08:50:12;17.35;;;13.13;;
41077;SDS011;26823;42.662;23.352;2023-04-03T08:52:45;21.48;;;12.45;;
41077;SDS011;26823;42.662;23.352;2023-04-03T08:55:29;21.25;;;13.05;;
41077;SDS011;26823;42.662;23.352;2023-04-03T08:58:24;17.45;;;11.60;;
41077;SDS011;26823;42.662;23.352;2023-04-03T09:03:28;23.35;;;11.63;;
41077;SDS011;26823;42.662;23.352;2023-04-03T09:22:20;20.65;;;12.80;;
41077;SDS011;26823;42.662;23.352;2023-04-03T09:27:28;15.65;;;10.20;;
41077;SDS011;26823;42.662;23.352;2023-04-03T09:29:55;20.98;;;9.82;;
41077;SDS011;26823;42.662;23.352;2023-04-03T09:32:26;17.98;;;9.20;;
41077;SDS011;26823;42.662;23.352;2023-04-03T09:34:56;12.25;;;8.65;;
41077;SDS011;26823;42.662;23.352;2023-04-03T09:38:00;14.55;;;8.13;;
41077;SDS011;26823;42.662;23.352;2023-04-03T09:42:50;15.73;;;7.85;;
41077;SDS011;26823;42.662;23.352;2023-04-03T09:45:28;9.95;;;7.60;;
41077;SDS011;26823;42.662;23.352;2023-04-03T09:55:56;6.60;;;4.13;;
41077;SDS011;26823;42.662;23.352;2023-04-03T09:58:29;5.43;;;3.75;;
41077;SDS011;26823;42.662;23.352;2023-04-03T10:01:02;12.02;;;7.07;;
41077;SDS011;26823;42.662;23.352;2023-04-03T10:03:30;10.45;;;8.45;;
41077;SDS011;26823;42.662;23.352;2023-04-03T10:05:57;16.27;;;9.07;;
41077;SDS011;26823;42.662;23.352;2023-04-03T10:08:25;12.00;;;8.18;;
41077;SDS011;26823;42.662;23.352;2023-04-03T10:11:08;16.67;;;8.80;;
41077;SDS011;26823;42.662;23.352;2023-04-03T10:16:29;16.27;;;8.05;;
41077;SDS011;26823;42.662;23.352;2023-04-03T10:27:17;10.10;;;5.35;;
41077;SDS011;26823;42.662;23.352;2023-04-03T10:30:34;13.10;;;5.80;;
41077;SDS011;26823;42.662;23.352;2023-04-03T10:40:41;8.45;;;4.00;;
41077;SDS011;26823;42.662;23.352;2023-04-03T10:45:56;10.23;;;4.07;;
41077;SDS011;26823;42.662;23.352;2023-04-03T10:51:18;6.18;;;3.50;;
41077;SDS011;26823;42.662;23.352;2023-04-03T10:56:57;6.53;;;3.10;;
41077;SDS011;26823;42.662;23.352;2023-04-03T11:02:02;5.43;;;2.20;;
41077;SDS011;26823;42.662;23.352;2023-04-03T11:04:41;3.38;;;2.38;;
41077;SDS011;26823;42.662;23.352;2023-04-03T11:09:45;3.47;;;2.00;;
41077;SDS011;26823;42.662;23.352;2023-04-03T11:15:15;4.13;;;2.45;;
41077;SDS011;26823;42.662;23.352;2023-04-03T11:17:54;2.25;;;1.80;;
41077;SDS011;26823;42.662;23.352;2023-04-03T11:20:30;2.47;;;2.10;;
41077;SDS011;26823;42.662;23.352;2023-04-03T11:25:55;2.80;;;2.42;;
41077;SDS011;26823;42.662;23.352;2023-04-03T11:28:31;3.08;;;2.50;;
41077;SDS011;26823;42.662;23.352;2023-04-03T11:33:45;3.67;;;2.53;;
41077;SDS011;26823;42.662;23.352;2023-04-03T11:38:47;7.22;;;2.53;;
41077;SDS011;26823;42.662;23.352;2023-04-03T11:41:16;3.90;;;2.42;;
41077;SDS011;26823;42.662;23.352;2023-04-03T11:44:34;2.40;;;2.20;;
41077;SDS011;26823;42.662;23.352;2023-04-03T11:46:56;3.53;;;2.70;;
41077;SDS011;26823;42.662;23.352;2023-04-03T12:05:54;3.70;;;2.70;;
41077;SDS011;26823;42.662;23.352;2023-04-03T12:16:06;3.63;;;2.78;;
41077;SDS011;26823;42.662;23.352;2023-04-03T12:21:20;3.78;;;2.88;;
41077;SDS011;26823;42.662;23.352;2023-04-03T12:26:26;3.25;;;2.63;;
41077;SDS011;26823;42.662;23.352;2023-04-03T12:28:55;3.25;;;2.42;;
41077;SDS011;26823;42.662;23.352;2023-04-03T12:31:22;2.65;;;2.45;;
41077;SDS011;26823;42.662;23.352;2023-04-03T12:34:01;3.25;;;2.40;;
41077;SDS011;26823;42.662;23.352;2023-04-03T12:39:48;3.60;;;2.58;;
41077;SDS011;26823;42.662;23.352;2023-04-03T12:47:50;3.40;;;3.05;;
41077;SDS011;26823;42.662;23.352;2023-04-03T12:50:20;4.30;;;3.03;;
41077;SDS011;26823;42.662;23.352;2023-04-03T12:53:06;3.75;;;3.22;;
41077;SDS011;26823;42.662;23.352;2023-04-03T12:55:38;4.03;;;3.35;;
41077;SDS011;26823;42.662;23.352;2023-04-03T12:58:24;4.60;;;3.65;;
41077;SDS011;26823;42.662;23.352;2023-04-03T13:01:02;5.15;;;3.58;;
41077;SDS011;26823;42.662;23.352;2023-04-03T13:03:33;4.22;;;3.60;;
41077;SDS011;26823;42.662;23.352;2023-04-03T13:06:02;6.60;;;3.92;;
41077;SDS011;26823;42.662;23.352;2023-04-03T13:08:29;7.70;;;3.80;;
41077;SDS011;26823;42.662;23.352;2023-04-03T13:11:02;6.38;;;3.60;;
41077;SDS011;26823;42.662;23.352;2023-04-03T13:13:28;5.82;;;4.30;;
41077;SDS011;26823;42.662;23.352;2023-04-03T13:15:54;10.15;;;4.47;;
41077;SDS011;26823;42.662;23.352;2023-04-03T13:18:21;4.43;;;3.72;;
41077;SDS011;26823;42.662;23.352;2023-04-03T13:20:47;5.30;;;4.80;;
41077;SDS011;26823;42.662;23.352;2023-04-03T13:23:14;4.40;;;3.80;;
41077;SDS011;26823;42.662;23.352;2023-04-03T13:25:44;4.25;;;3.80;;
41077;SDS011;26823;42.662;23.352;2023-04-03T13:28:11;5.22;;;4.70;;
41077;SDS011;26823;42.662;23.352;2023-04-03T13:30:41;9.02;;;5.05;;
41077;SDS011;26823;42.662;23.352;2023-04-03T13:33:24;6.43;;;5.47;;
41077;SDS011;26823;42.662;23.352;2023-04-03T13:35:56;7.70;;;5.28;;
41077;SDS011;26823;42.662;23.352;2023-04-03T13:38:30;6.35;;;5.30;;
41077;SDS011;26823;42.662;23.352;2023-04-03T13:40:58;9.30;;;5.82;;
41077;SDS011;26823;42.662;23.352;2023-04-03T13:43:35;6.95;;;5.55;;
41077;SDS011;26823;42.662;23.352;2023-04-03T13:46:19;6.35;;;5.10;;
41077;SDS011;26823;42.662;23.352;2023-04-03T13:48:49;4.55;;;3.67;;
41077;SDS011;26823;42.662;23.352;2023-04-03T13:53:49;6.43;;;4.88;;
41077;SDS011;26823;42.662;23.352;2023-04-03T13:56:25;6.70;;;4.70;;
41077;SDS011;26823;42.662;23.352;2023-04-03T13:59:01;5.30;;;4.50;;
41077;SDS011;26823;42.662;23.352;2023-04-03T14:04:18;8.85;;;5.20;;
41077;SDS011;26823;42.662;23.352;2023-04-03T14:06:47;6.53;;;5.07;;
41077;SDS011;26823;42.662;23.352;2023-04-03T14:09:13;6.20;;;5.60;;
41077;SDS011;26823;42.662;23.352;2023-04-03T14:11:40;7.82;;;4.60;;
41077;SDS011;26823;42.662;23.352;2023-04-03T14:16:59;6.38;;;5.32;;
41077;SDS011;26823;42.662;23.352;2023-04-03T14:19:31;7.53;;;5.10;;
41077;SDS011;26823;42.662;23.352;2023-04-03T14:21:58;10.05;;;5.60;;
41077;SDS011;26823;42.662;23.352;2023-04-03T14:24:25;5.90;;;4.95;;
41077;SDS011;26823;42.662;23.352;2023-04-03T14:26:52;7.15;;;5.35;;
41077;SDS011;26823;42.662;23.352;2023-04-03T14:29:19;5.00;;;4.50;;
41077;SDS011;26823;42.662;23.352;2023-04-03T14:31:46;6.47;;;5.18;;
41077;SDS011;26823;42.662;23.352;2023-04-03T14:34:13;6.28;;;4.40;;
41077;SDS011;26823;42.662;23.352;2023-04-03T14:36:40;5.40;;;4.40;;
41077;SDS011;26823;42.662;23.352;2023-04-03T14:39:10;5.53;;;4.95;;
41077;SDS011;26823;42.662;23.352;2023-04-03T14:41:42;7.72;;;5.22;;
41077;SDS011;26823;42.662;23.352;2023-04-03T14:44:08;5.65;;;4.90;;
41077;SDS011;26823;42.662;23.352;2023-04-03T14:46:37;12.20;;;5.20;;
41077;SDS011;26823;42.662;23.352;2023-04-03T14:51:59;7.93;;;5.57;;
41077;SDS011;26823;42.662;23.352;2023-04-03T14:54:25;9.68;;;5.30;;
41077;SDS011;26823;42.662;23.352;2023-04-03T14:56:52;6.50;;;5.78;;
41077;SDS011;26823;42.662;23.352;2023-04-03T14:59:20;8.05;;;5.68;;
41077;SDS011;26823;42.662;23.352;2023-04-03T15:01:46;10.18;;;6.05;;
41077;SDS011;26823;42.662;23.352;2023-04-03T15:04:15;7.10;;;5.60;;
41077;SDS011;26823;42.662;23.352;2023-04-03T15:06:42;6.53;;;5.13;;
41077;SDS011;26823;42.662;23.352;2023-04-03T15:09:21;6.07;;;4.47;;
41077;SDS011;26823;42.662;23.352;2023-04-03T15:11:51;5.10;;;4.45;;
41077;SDS011;26823;42.662;23.352;2023-04-03T15:14:18;5.35;;;4.72;;
41077;SDS011;26823;42.662;23.352;2023-04-03T15:16:44;6.93;;;3.80;;
41077;SDS011;26823;42.662;23.352;2023-04-03T15:19:10;4.30;;;3.67;;
41077;SDS011;26823;42.662;23.352;2023-04-03T15:21:36;5.03;;;3.88;;
41077;SDS011;26823;42.662;23.352;2023-04-03T15:24:02;5.30;;;4.00;;
41077;SDS011;26823;42.662;23.352;2023-04-03T15:26:28;5.13;;;3.88;;
41077;SDS011;26823;42.662;23.352;2023-04-03T15:28:54;5.10;;;3.75;;
41077;SDS011;26823;42.662;23.352;2023-04-03T15:31:19;3.38;;;3.00;;
41077;SDS011;26823;42.662;23.352;2023-04-03T15:33:45;3.90;;;3.60;;
41077;SDS011;26823;42.662;23.352;2023-04-03T15:36:10;5.05;;;3.58;;
41077;SDS011;26823;42.662;23.352;2023-04-03T15:38:35;4.90;;;3.25;;
41077;SDS011;26823;42.662;23.352;2023-04-03T15:41:03;4.22;;;3.75;;
41077;SDS011;26823;42.662;23.352;2023-04-03T15:43:28;4.15;;;3.75;;
41077;SDS011;26823;42.662;23.352;2023-04-03T15:45:55;7.25;;;4.43;;
41077;SDS011;26823;42.662;23.352;2023-04-03T15:48:23;5.13;;;3.60;;
41077;SDS011;26823;42.662;23.352;2023-04-03T15:50:48;5.47;;;4.13;;
41077;SDS011;26823;42.662;23.352;2023-04-03T15:53:14;4.20;;;3.50;;
41077;SDS011;26823;42.662;23.352;2023-04-03T15:55:39;6.80;;;3.88;;
41077;SDS011;26823;42.662;23.352;2023-04-03T15:58:05;5.10;;;3.55;;
41077;SDS011;26823;42.662;23.352;2023-04-03T16:00:30;5.75;;;4.35;;
41077;SDS011;26823;42.662;23.352;2023-04-03T16:03:02;4.55;;;3.72;;
41077;SDS011;26823;42.662;23.352;2023-04-03T16:05:30;6.47;;;4.30;;
41077;SDS011;26823;42.662;23.352;2023-04-03T16:07:56;4.78;;;3.63;;
41077;SDS011;26823;42.662;23.352;2023-04-03T16:10:24;4.20;;;3.75;;
41077;SDS011;26823;42.662;23.352;2023-04-03T16:12:50;4.53;;;4.13;;
41077;SDS011;26823;42.662;23.352;2023-04-03T16:15:15;4.70;;;4.30;;
41077;SDS011;26823;42.662;23.352;2023-04-03T16:17:41;7.65;;;4.97;;
41077;SDS011;26823;42.662;23.352;2023-04-03T16:20:07;6.57;;;4.75;;
41077;SDS011;26823;42.662;23.352;2023-04-03T16:22:35;5.75;;;4.45;;
41077;SDS011;26823;42.662;23.352;2023-04-03T16:25:01;6.05;;;4.60;;
41077;SDS011;26823;42.662;23.352;2023-04-03T16:27:26;7.53;;;4.90;;
41077;SDS011;26823;42.662;23.352;2023-04-03T16:29:55;6.65;;;4.55;;
41077;SDS011;26823;42.662;23.352;2023-04-03T16:32:22;7.13;;;5.40;;
41077;SDS011;26823;42.662;23.352;2023-04-03T16:34:48;6.97;;;4.97;;
41077;SDS011;26823;42.662;23.352;2023-04-03T16:37:14;6.03;;;4.47;;
41077;SDS011;26823;42.662;23.352;2023-04-03T16:39:40;5.55;;;4.38;;
41077;SDS011;26823;42.662;23.352;2023-04-03T16:42:06;7.97;;;5.20;;
41077;SDS011;26823;42.662;23.352;2023-04-03T16:44:31;5.18;;;4.63;;
41077;SDS011;26823;42.662;23.352;2023-04-03T16:46:57;6.07;;;4.82;;
41077;SDS011;26823;42.662;23.352;2023-04-03T16:49:22;5.60;;;4.65;;
41077;SDS011;26823;42.662;23.352;2023-04-03T16:51:48;7.47;;;5.22;;
41077;SDS011;26823;42.662;23.352;2023-04-03T16:54:14;8.85;;;6.35;;
41077;SDS011;26823;42.662;23.352;2023-04-03T16:56:39;6.10;;;4.97;;